ADDS METAR Data INFO
IDs: Format: Raw Decoded Include TAF

Data at: 1011 UTC 14 Dec 2017

KCIR 140955Z AUTO 36004KT 10SM OVC040 03/M04 A2992 RMK AO2 T00251036
KCIR 140935Z AUTO 01005KT 10SM BKN040 03/M03 A2991 RMK AO2 T00281034
KCIR 140915Z AUTO 36007KT 10SM SCT040 03/M03 A2991 RMK AO2 T00301030
KCIR 140855Z AUTO 35009KT 10SM SCT038 03/M02 A2990 RMK AO2 T00321024
KCIR 140835Z AUTO 01009KT 10SM CLR 03/M02 A2989 RMK AO2 T00261017
KCIR 140815Z AUTO 36006KT 10SM CLR 03/M01 A2989 RMK AO2 T00331015
KCIR 140755Z AUTO 35008KT 10SM CLR 03/M01 A2989 RMK AO2 T00341012
KCIR 140735Z AUTO 35010KT 10SM CLR 04/M01 A2988 RMK AO2 T00421010
KCIR 140715Z AUTO 35010G15KT 10SM CLR 04/M01 A2987 RMK AO2 T00441009
KCIR 140655Z AUTO 35012G15KT 10SM CLR 05/M01 A2986 RMK AO2 T00481006
KCIR 140635Z AUTO 34013G19KT 10SM CLR 05/00 A2985 RMK AO2 T00541002
KCIR 140615Z AUTO 35010G18KT 10SM CLR 05/00 A2985 RMK AO2 T00521001
KCIR 140555Z AUTO 36006KT 10SM CLR 03/M02 A2984 RMK AO2 T00321016 10089 21017 401051070
KCIR 140535Z AUTO 30003KT 10SM CLR 00/M03 A2983 RMK AO2 T10041032
KCIR 140515Z AUTO 27003KT 10SM CLR M01/M03 A2981 RMK AO2 T10061030
KCIR 140455Z AUTO 27003KT 10SM CLR 01/M02 A2980 RMK AO2 T00141019
KCIR 140435Z AUTO 00000KT 10SM CLR M02/M04 A2980 RMK AO2 T10171037
KCIR 140415Z AUTO 33004KT 10SM CLR 01/M02 A2979 RMK AO2 T00071022
KCIR 140355Z AUTO 24003KT 10SM CLR 01/M03 A2978 RMK AO2 T00051026
KCIR 140335Z AUTO 24003KT 10SM CLR 02/M02 A2977 RMK AO2 T00231022
KCIR 140315Z AUTO 22003KT 10SM CLR 04/M02 A2977 RMK AO2 T00401016
KCIR 140255Z AUTO 25003KT 10SM CLR 04/M02 A2976 RMK AO2 T00431016
KCIR 140235Z AUTO 24003KT 10SM CLR 06/M01 A2975 RMK AO2 T00621013
KCIR 140215Z AUTO 23006KT 10SM CLR 06/M01 A2975 RMK AO2 T00631011
KCIR 140155Z AUTO 24006KT 10SM CLR 07/M01 A2974 RMK AO2 T00701012
KCIR 140135Z AUTO 24009KT 10SM CLR 07/M01 A2973 RMK AO2 T00741012
KCIR 140115Z AUTO 23011G14KT 10SM CLR 08/M01 A2972 RMK AO2 T00811015
KCIR 140055Z AUTO 22010G16KT 10SM CLR 09/M02 A2972 RMK AO2 T00851016
KCIR 140035Z AUTO 21010G15KT 10SM CLR 09/M02 A2971 RMK AO2 T00851016
KCIR 140015Z AUTO 21012G16KT 10SM CLR 09/M01 A2970 RMK AO2 T00861015
KCIR 132355Z AUTO 22008G16KT 10SM CLR 09/M01 A2970 RMK AO2 T00881015 10105 20088
KCIR 132335Z AUTO 21012G16KT 10SM CLR 09/M01 A2970 RMK AO2 T00901015
KCIR 132315Z AUTO 21011G16KT 10SM CLR 09/M01 A2969 RMK AO2 T00911015
KCIR 132255Z AUTO 21010G15KT 10SM CLR 10/M02 A2967 RMK AO2 T00951017
KCIR 132235Z AUTO 21009G18KT 10SM CLR 10/M02 A2967 RMK AO2 T01001018
KCIR 132215Z AUTO 21012G17KT 10SM CLR 10/M02 A2967 RMK AO2 T01021020
KCIR 132155Z AUTO 21010G16KT 10SM CLR 11/M02 A2967 RMK AO2 T01051020
KCIR 132135Z AUTO 21011G19KT 10SM CLR 11/M02 A2967 RMK AO2 T01051022
KCIR 132115Z AUTO 22014G21KT 10SM CLR 11/M02 A2968 RMK AO2 T01051022
KCIR 132055Z AUTO 21013G23KT 10SM CLR 10/M02 A2967 RMK AO2 T01031022
KCIR 132035Z AUTO 22018G22KT 10SM CLR 10/M02 A2968 RMK AO2 T01021023
KCIR 132015Z AUTO 21015G22KT 10SM CLR 10/M02 A2968 RMK AO2 T00971025
KCIR 131955Z AUTO 23014G25KT 10SM CLR 10/M03 A2969 RMK AO2 T00991027
KCIR 131935Z AUTO 22015G29KT 10SM CLR 10/M03 A2969 RMK AO2 T00951027
KCIR 131915Z AUTO 23017G28KT 10SM CLR 10/M03 A2969 RMK AO2 T00951028
KCIR 131855Z AUTO 22019G29KT 10SM CLR 10/M02 A2970 RMK AO2 T01011023
KCIR 131835Z AUTO 22022G30KT 10SM CLR 09/M03 A2971 RMK AO2 T00931028
KCIR 131815Z AUTO 22017G29KT 10SM CLR 09/M03 A2973 RMK AO2 T00911033
KCIR 131755Z AUTO 22016G27KT 10SM CLR 09/M04 A2973 RMK AO2 T00861037 10086 21017
KCIR 131735Z AUTO 20018G27KT 10SM CLR 08/M05 A2975 RMK AO2 T00811047
KCIR 131715Z AUTO 21017G24KT 10SM CLR 08/M05 A2977 RMK AO2 T00801051
KCIR 131655Z AUTO 20018G25KT 10SM CLR 07/M06 A2979 RMK AO2 T00721064
KCIR 131635Z AUTO 21012G19KT 10SM CLR 06/M07 A2980 RMK AO2 T00631070
KCIR 131615Z AUTO 20018G26KT 10SM CLR 06/M08 A2982 RMK AO2 T00551078
KCIR 131555Z AUTO 20011G22KT 10SM CLR 05/M07 A2984 RMK AO2 T00461072
KCIR 131535Z AUTO 19012G18KT 10SM CLR 04/M07 A2985 RMK AO2 T00371072
KCIR 131515Z AUTO 18011G15KT 10SM CLR 03/M07 A2987 RMK AO2 T00301075
KCIR 131455Z AUTO 19009G14KT 10SM CLR 02/M07 A2988 RMK AO2 T00211072
KCIR 131435Z AUTO 19009G14KT 10SM CLR 01/M07 A2989 RMK AO2 T00071067
KCIR 131415Z AUTO 18008KT 10SM CLR 00/M07 A2990 RMK AO2 T10021070
KCIR 131355Z AUTO 19010G15KT 10SM CLR M01/M07 A2990 RMK AO2 T10101072
KCIR 131335Z AUTO 18008KT 10SM CLR M01/M08 A2992 RMK AO2 T10131076
KCIR 131315Z AUTO 19008KT 10SM CLR M01/M07 A2993 RMK AO2 T10151075
KCIR 131255Z AUTO 19008KT 10SM CLR M02/M08 A2995 RMK AO2 T10171076
KCIR 131235Z AUTO 18007KT 10SM CLR M01/M08 A2996 RMK AO2 T10131077
KCIR 131215Z AUTO 19006KT 10SM CLR M01/M08 A2997 RMK AO2 T10121076
KCIR 131155Z AUTO 19005KT 10SM CLR M01/M08 A2997 RMK AO2 T10151080 11011 21070
KCIR 131135Z AUTO 19007KT 10SM CLR M01/M08 A2998 RMK AO2 T10111081
KCIR 131115Z AUTO 19006KT 10SM CLR M02/M08 A2997 RMK AO2 T10161085
KCIR 131055Z AUTO 19007KT 10SM CLR M02/M09 A2998 RMK AO2 T10171087
KCIR 131035Z AUTO 19006KT 10SM CLR M02/M09 A3000 RMK AO2 T10161088
KCIR 131015Z AUTO 20007KT 10SM CLR M02/M09 A3001 RMK AO2 T10191088
KCIR 130955Z AUTO 20005KT 10SM CLR M03/M09 A3001 RMK AO2 T10271094
KCIR 130935Z AUTO 19005KT 10SM CLR M03/M10 A3002 RMK AO2 T10261097
KCIR 130915Z AUTO 19006KT 10SM CLR M03/M10 A3003 RMK AO2 T10291101
KCIR 130855Z AUTO 19007KT 10SM CLR M03/M11 A3005 RMK AO2 T10301106
KCIR 130835Z AUTO 19006KT 10SM CLR M03/M11 A3005 RMK AO2 T10321106
KCIR 130815Z AUTO 18004KT 10SM CLR M05/M10 A3006 RMK AO2 T10551101
KCIR 130755Z AUTO 00000KT 10SM CLR M07/M10 A3007 RMK AO2 T10681102
KCIR 130735Z AUTO 00000KT 10SM CLR M05/M10 A3008 RMK AO2 T10511105
KCIR 130715Z AUTO 00000KT 10SM CLR M05/M10 A3008 RMK AO2 T10471101
KCIR 130655Z AUTO 19003KT 10SM CLR M03/M10 A3008 RMK AO2 T10301102
KCIR 130635Z AUTO 18003KT 10SM CLR M05/M08 A3009 RMK AO2 T10521085
KCIR 130615Z AUTO 00000KT 10SM CLR M06/M09 A3010 RMK AO2 T10641090
KCIR 130555Z AUTO 00000KT 10SM CLR M05/M09 A3010 RMK AO2 T10551089 10000 21061 400891061
KCIR 130535Z AUTO 00000KT 10SM CLR M06/M09 A3010 RMK AO2 T10561087
KCIR 130515Z AUTO 00000KT 10SM CLR M06/M09 A3011 RMK AO2 T10581088
KCIR 130455Z AUTO 00000KT 10SM CLR M05/M09 A3012 RMK AO2 T10481092
KCIR 130435Z AUTO 00000KT 10SM CLR M04/M09 A3013 RMK AO2 T10451088
KCIR 130415Z AUTO 00000KT 10SM CLR M06/M10 A3013 RMK AO2 T10591096
KCIR 130355Z AUTO 00000KT 10SM CLR M04/M09 A3013 RMK AO2 T10411089
KCIR 130335Z AUTO 00000KT 10SM CLR M04/M09 A3013 RMK AO2 T10401086
KCIR 130310Z AUTO 00000KT 10SM CLR M04/M10 A3013 RMK AO2 T10371101
KCIR 130255Z AUTO 00000KT 10SM CLR M04/M11 A3014 RMK AO2 T10431110
KCIR 130235Z AUTO 00000KT 10SM CLR M04/M11 A3014 RMK AO2 T10401111
KCIR 130215Z AUTO 00000KT 10SM CLR M03/M10 A3015 RMK AO2 T10271103
KCIR 130155Z AUTO 00000KT 10SM CLR M03/M11 A3015 RMK AO2 T10301112
KCIR 130135Z AUTO 00000KT 10SM CLR M02/M12 A3015 RMK AO2 T10241120
KCIR 130115Z AUTO 00000KT 10SM CLR M03/M12 A3015 RMK AO2 T10271117
KCIR 130055Z AUTO 00000KT 10SM CLR M03/M12 A3016 RMK AO2 T10261119
KCIR 130035Z AUTO 00000KT 10SM CLR M01/M12 A3016 RMK AO2 T10141121
KCIR 130015Z AUTO 00000KT 10SM CLR M01/M12 A3016 RMK AO2 T10081119
KCIR 122355Z AUTO 00000KT 10SM CLR 00/M12 A3016 RMK AO2 T00001125 10043 20000
KCIR 122335Z AUTO 32004KT 10SM CLR 00/M12 A3015 RMK AO2 T00021124
KCIR 122315Z AUTO 32005KT 10SM CLR 01/M13 A3015 RMK AO2 T00071126
KCIR 122255Z AUTO 32004KT 10SM CLR 01/M12 A3015 RMK AO2 T00101122
KCIR 122235Z AUTO 33006KT 10SM CLR 02/M12 A3015 RMK AO2 T00201119
KCIR 122215Z AUTO 32009KT 10SM CLR 03/M12 A3015 RMK AO2 T00281120